createdAt,value
2018-12-31T08:09:35.313Z,7.40
2018-12-31T08:12:32.560Z,7.50
2018-12-31T08:15:02.217Z,7.50
2018-12-31T08:17:32.294Z,7.40
2018-12-31T08:23:33.226Z,7.50
2018-12-31T08:26:02.889Z,7.50
2018-12-31T08:35:52.219Z,7.20
2018-12-31T08:38:23.313Z,7.30
2018-12-31T08:40:57.372Z,7.30
2018-12-31T08:43:58.942Z,7.40
2018-12-31T08:46:32.185Z,7.40
2018-12-31T08:49:30.045Z,7.30
2018-12-31T08:52:08.483Z,7.30
2018-12-31T08:54:39.931Z,7.20
2018-12-31T08:57:45.263Z,7.20
2018-12-31T09:03:37.671Z,7.40
2018-12-31T09:06:26.643Z,7.40
2018-12-31T09:09:05.372Z,7.50
2018-12-31T09:15:03.127Z,7.60
2018-12-31T09:17:32.674Z,7.80
2018-12-31T09:20:02.264Z,7.70
2018-12-31T09:22:37.267Z,7.70
2018-12-31T10:19:01.784Z,7.80
2018-12-31T10:24:20.299Z,7.80
2018-12-31T10:30:43.991Z,7.90
2018-12-31T10:33:22.931Z,8.00
2018-12-31T10:35:55.039Z,8.10
2018-12-31T10:38:32.446Z,8.20
2018-12-31T10:40:59.669Z,8.30
2018-12-31T10:44:22.165Z,8.40
2018-12-31T10:47:42.572Z,8.50
2018-12-31T10:50:14.077Z,8.60
2018-12-31T10:56:38.901Z,8.70
2018-12-31T10:59:15.773Z,8.90
2018-12-31T11:01:45.630Z,9.00
2018-12-31T11:08:20.922Z,9.20
2018-12-31T11:11:14.626Z,9.10
2018-12-31T11:13:47.748Z,9.20
2018-12-31T11:16:19.567Z,9.30
2018-12-31T11:18:49.123Z,9.30
2018-12-31T11:24:49.327Z,9.20
2018-12-31T11:27:45.502Z,9.40
2018-12-31T11:30:21.951Z,9.10
2018-12-31T11:33:13.602Z,8.80
2018-12-31T11:35:43.128Z,9.00
2018-12-31T11:38:20.395Z,9.10
2018-12-31T11:40:54.077Z,9.20
2018-12-31T13:23:22.693Z,9.70
2018-12-31T13:29:58.192Z,9.80
2018-12-31T14:18:56.214Z,9.70
2018-12-31T14:25:27.007Z,9.60
2018-12-31T14:28:02.776Z,9.40
2018-12-31T14:30:59.992Z,9.50
2018-12-31T14:33:57.171Z,9.60
2018-12-31T14:36:43.309Z,9.60
2018-12-31T14:39:14.998Z,9.60
2018-12-31T14:41:44.461Z,9.60
2018-12-31T14:44:15.855Z,9.60
2018-12-31T14:46:45.185Z,9.60
2018-12-31T14:49:14.864Z,9.60
2018-12-31T14:51:44.261Z,9.60
2018-12-31T14:54:30.803Z,9.50
2018-12-31T14:57:00.555Z,9.60
2018-12-31T14:59:30.044Z,9.50
2018-12-31T15:02:08.377Z,9.50
2018-12-31T15:04:40.688Z,9.60
2018-12-31T15:07:13.375Z,9.60
2018-12-31T15:09:45.108Z,9.50
2018-12-31T15:12:30.907Z,9.50
2018-12-31T15:14:54.868Z,9.50
2018-12-31T15:17:24.745Z,9.30
2018-12-31T15:19:59.812Z,9.20
2018-12-31T15:22:29.480Z,9.10
2018-12-31T15:25:00.725Z,9.20
2018-12-31T15:27:32.120Z,9.20
2018-12-31T15:30:05.728Z,9.30
2018-12-31T15:32:36.490Z,9.20
2018-12-31T15:35:20.231Z,9.30
2018-12-31T15:37:51.228Z,9.30
2018-12-31T15:40:20.960Z,9.30
2018-12-31T15:42:56.490Z,9.30
2018-12-31T15:45:43.239Z,9.30
2018-12-31T15:48:15.025Z,9.30
2018-12-31T15:50:44.389Z,9.20
2018-12-31T15:53:13.963Z,9.20
2018-12-31T15:55:43.933Z,9.20
2018-12-31T15:58:17.372Z,9.20
2018-12-31T16:01:07.664Z,9.20
2018-12-31T16:03:41.351Z,9.20
2018-12-31T16:06:16.192Z,9.20
2018-12-31T16:09:19.644Z,9.20
2018-12-31T16:12:30.462Z,9.10
2018-12-31T16:18:42.502Z,9.10
2018-12-31T16:20:44.834Z,9.10
2018-12-31T16:23:29.176Z,9.00
2018-12-31T16:26:00.953Z,9.00
2018-12-31T16:28:44.110Z,9.10
2018-12-31T16:31:32.220Z,9.10
2018-12-31T16:34:05.763Z,9.10
2018-12-31T16:36:57.070Z,9.00
2018-12-31T16:40:05.407Z,9.00
2018-12-31T16:42:55.660Z,9.00
2018-12-31T16:45:28.013Z,8.90
2018-12-31T16:47:59.385Z,8.90
2018-12-31T16:50:51.225Z,8.90
2018-12-31T16:53:23.544Z,8.80
2018-12-31T16:55:57.731Z,8.90
2018-12-31T16:58:34.448Z,8.90
2018-12-31T17:01:04.269Z,8.90
2018-12-31T17:03:36.780Z,8.90
2018-12-31T17:06:09.468Z,8.90
2018-12-31T17:08:38.989Z,8.90
2018-12-31T17:11:08.623Z,8.90
2018-12-31T17:13:38.534Z,8.90
2018-12-31T17:16:08.327Z,8.90
2018-12-31T17:18:37.676Z,8.80
2018-12-31T17:21:07.260Z,8.80
2018-12-31T17:23:39.574Z,8.70
2018-12-31T17:26:09.055Z,8.70
2018-12-31T17:28:38.394Z,8.70
2018-12-31T17:31:18.081Z,8.80
2018-12-31T17:33:44.689Z,8.80
2018-12-31T17:36:17.740Z,8.80
2018-12-31T17:38:48.969Z,8.80
2018-12-31T17:42:48.565Z,8.80
2018-12-31T17:44:33.108Z,8.70
2018-12-31T17:47:02.499Z,8.60
2018-12-31T17:49:31.954Z,8.60
2018-12-31T17:52:03.983Z,8.50
2018-12-31T17:57:51.813Z,8.40
2018-12-31T18:00:23.971Z,8.60
2018-12-31T18:02:53.441Z,8.60
2018-12-31T18:05:22.900Z,8.70
2018-12-31T18:07:52.696Z,8.70
2018-12-31T18:10:22.538Z,8.70
2018-12-31T18:12:51.975Z,8.60
2018-12-31T18:15:21.400Z,8.60
2018-12-31T18:17:50.890Z,8.60
2018-12-31T18:20:20.608Z,8.60
2018-12-31T18:22:51.217Z,8.60
2018-12-31T18:25:22.402Z,8.60
2018-12-31T18:27:52.332Z,8.60
2018-12-31T18:30:28.943Z,8.60
2018-12-31T18:33:06.744Z,8.60
2018-12-31T18:35:39.193Z,8.60
2018-12-31T18:38:10.983Z,8.50
2018-12-31T18:41:01.368Z,8.50
2018-12-31T18:43:30.989Z,8.60
2018-12-31T18:46:00.429Z,8.50
2018-12-31T18:48:29.747Z,8.50
2018-12-31T18:51:04.254Z,8.50
2018-12-31T18:53:33.426Z,8.50
2018-12-31T18:56:02.912Z,8.30
2018-12-31T18:58:32.311Z,8.40
2018-12-31T19:01:02.168Z,8.40
2018-12-31T19:03:33.482Z,8.40
2018-12-31T19:06:03.158Z,8.30
2018-12-31T19:08:33.238Z,8.40
2018-12-31T19:11:02.831Z,8.40
2018-12-31T19:13:32.322Z,8.40
2018-12-31T19:16:01.888Z,8.30
2018-12-31T19:18:32.718Z,8.30
2018-12-31T19:21:02.128Z,8.40
2018-12-31T19:23:31.840Z,8.50
2018-12-31T19:26:01.508Z,8.40
2018-12-31T19:28:31.207Z,8.20
2018-12-31T19:31:00.766Z,8.20
2018-12-31T19:33:30.168Z,8.20
2018-12-31T19:35:59.599Z,8.20
2018-12-31T19:38:29.155Z,8.20
2018-12-31T19:41:13.298Z,8.40
2018-12-31T19:43:42.648Z,8.40
2018-12-31T19:46:12.052Z,8.50
2018-12-31T19:48:41.589Z,8.50
2018-12-31T19:51:10.922Z,8.60
2018-12-31T19:53:41.316Z,8.60
2018-12-31T19:56:10.638Z,8.50
2018-12-31T19:58:40.050Z,8.50
2018-12-31T20:01:09.649Z,8.60
2018-12-31T20:03:39.115Z,8.50
2018-12-31T20:06:08.439Z,8.50
2018-12-31T20:08:37.910Z,8.40
2018-12-31T20:11:07.236Z,8.40
2018-12-31T20:13:39.494Z,8.40
2018-12-31T20:16:10.620Z,8.40
2018-12-31T20:18:45.085Z,8.40
2018-12-31T20:21:12.016Z,8.40
2018-12-31T20:23:44.145Z,8.40
2018-12-31T20:26:13.571Z,8.40
2018-12-31T20:28:43.078Z,8.50
2018-12-31T20:31:12.515Z,8.40
2018-12-31T20:33:42.182Z,8.40
2018-12-31T20:36:11.515Z,8.40
2018-12-31T20:38:41.203Z,8.40
2018-12-31T20:41:10.611Z,8.40
2018-12-31T20:43:39.987Z,8.40
2018-12-31T20:46:10.587Z,8.40
2018-12-31T20:48:39.974Z,8.30
2018-12-31T20:51:09.419Z,8.30
2018-12-31T20:53:38.859Z,8.20
2018-12-31T20:56:08.218Z,8.30
2018-12-31T20:58:37.685Z,8.20
2018-12-31T21:01:08.108Z,8.20
2018-12-31T21:03:37.904Z,8.30
2018-12-31T21:06:07.216Z,8.30
2018-12-31T21:08:42.474Z,8.30
2018-12-31T21:11:11.845Z,8.40
2018-12-31T21:13:41.204Z,8.40
2018-12-31T21:16:10.835Z,8.40
2018-12-31T21:18:40.164Z,8.40
2018-12-31T21:21:11.779Z,8.50
2018-12-31T21:23:45.172Z,8.40
2018-12-31T21:26:14.538Z,8.40
2018-12-31T21:28:43.980Z,8.40
2018-12-31T21:31:13.426Z,8.50
2018-12-31T21:33:42.849Z,8.50
2018-12-31T21:36:12.139Z,8.50
2018-12-31T21:38:43.810Z,8.50
2018-12-31T21:41:13.107Z,8.50
2018-12-31T21:43:42.512Z,8.50
2018-12-31T21:46:11.840Z,8.50
2018-12-31T21:48:41.192Z,8.50
2018-12-31T21:51:13.604Z,8.50
2018-12-31T21:53:43.066Z,8.50
2018-12-31T21:56:12.413Z,8.50
2018-12-31T21:58:41.818Z,8.40
2018-12-31T22:01:11.155Z,8.40
2018-12-31T22:03:40.578Z,8.40
2018-12-31T22:06:10.067Z,8.40
2018-12-31T22:08:39.419Z,8.30
2018-12-31T22:11:10.258Z,8.30
2018-12-31T22:13:39.654Z,8.30
2018-12-31T22:16:09.339Z,8.30
2018-12-31T22:18:38.788Z,8.30
2018-12-31T22:21:08.113Z,8.30
2018-12-31T22:23:37.524Z,8.30
2018-12-31T22:26:06.933Z,8.30
2018-12-31T22:28:38.435Z,8.30
2018-12-31T22:31:07.782Z,8.30
2018-12-31T22:33:37.251Z,8.30
2018-12-31T22:36:07.127Z,8.30
2018-12-31T22:38:37.293Z,8.20
2018-12-31T22:42:24.468Z,8.20
2018-12-31T22:44:28.998Z,8.20
2018-12-31T22:50:42.385Z,8.20
2018-12-31T22:53:59.158Z,8.30
2018-12-31T22:57:04.919Z,8.30
2018-12-31T22:59:30.529Z,8.30
2018-12-31T23:02:19.796Z,8.30
2018-12-31T23:05:27.108Z,8.20
2018-12-31T23:08:20.042Z,8.20
2018-12-31T23:11:03.233Z,8.20
2018-12-31T23:14:02.026Z,8.20
2018-12-31T23:16:32.173Z,8.30
2018-12-31T23:20:25.177Z,8.30
2018-12-31T23:23:00.964Z,8.30
2018-12-31T23:26:18.251Z,8.30
